Pagrindinis puslapis
METAR-TAF:

METAR-TAF

Oro uostai :

Bandirma, Turkija

platuma: 40-19N, ilguma: 027-58E, Aukštis: 51 m

Dabartinis oras

Ataskaita buvo paskelbta 9 valandos ir 47 minutes, ne 08:21 UTC
Vėjas 12 kt iš Šiaurės/Šiaurės Rytų
Temperatūra 23°C
Drėgmė 78%
Slėgis 1022 hPa
Matomumas 10 km arba daugiau
Mažai debesys ne aukštis 2000 ft
Su prošvaistėmis ne aukštis 3500 ft

METAR: LTBG 150821Z 03012KT 9999 FEW020 BKN035 23/19 Q1022 RESHRA NOSIG RMK RWY18 04012KT

Laikas: 21:08 (18:08 UTC)

Prognozė

Ataskaita buvo paskelbta 1 valandą ir 28 minutes, ne 16:40 UTC
Prognozė galioja nuo 15 metu 18 UTC su 16 metu 03 UTC
Vėjas 19 kt iš Šiaurės/Šiaurės Rytų
Matomumas 10 km arba daugiau
nėra debesų žemiau 1500 m ir nėra kamuolinių lietaus debesų
Tapsmas
nuo 15 metu 22 UTC su 15 metu 24 UTC
Vėjas 8 kt iš Šiaurės/Šiaurės Rytų
Mažai debesys ne aukštis 1500 ft
Išsisklaidę debesys ne aukštis 3500 ft

TAF: LTBG 151640Z 1518/1603 03019KT CAVOK BECMG 1522/1524 02008KT FEW015 SCT035

Orai ataskaitas ir orų prognozės (METAR, TAF).

turimą stotys yra geltonos ir raudonos taškus žemėlapyje.

Perkelti pele per norėdami pamatyti stoties vardą.

Tada spustelėkite, norėdami matyti oro stebėjimo ir prognozės.

Norėdami pakeisti žemėlapį: spustelėkite ant žalios mygtukų su juodo kryžiaus žemyn,; žalią mygtuką su brūkšneliu, jei norite nutolinti; arba žalių rodyklių gretimoms žemėlapius.


METAR-TAF: